createdAt,value
2019-02-24T00:00:54.875Z,18.50
2019-02-24T00:03:24.777Z,17.20
2019-02-24T00:05:54.344Z,16.63
2019-02-24T00:08:23.836Z,18.57
2019-02-24T00:10:53.528Z,17.33
2019-02-24T00:13:23.043Z,16.60
2019-02-24T00:15:52.567Z,17.47
2019-02-24T00:18:22.088Z,18.27
2019-02-24T00:20:51.607Z,17.43
2019-02-24T00:23:21.122Z,17.83
2019-02-24T00:25:50.662Z,18.30
2019-02-24T00:28:20.178Z,18.40
2019-02-24T00:30:49.038Z,17.83
2019-02-24T00:33:18.558Z,18.73
2019-02-24T00:35:48.067Z,19.20
2019-02-24T00:38:17.621Z,20.33
2019-02-24T00:40:47.377Z,18.90
2019-02-24T00:43:16.890Z,17.93
2019-02-24T00:45:46.367Z,17.53
2019-02-24T00:48:15.257Z,17.33
2019-02-24T00:50:44.767Z,17.93
2019-02-24T00:53:14.303Z,19.63
2019-02-24T00:55:43.828Z,20.57
2019-02-24T00:58:16.231Z,21.47
2019-02-24T01:00:44.598Z,17.63
2019-02-24T01:03:14.141Z,18.57
2019-02-24T01:05:43.665Z,17.77
2019-02-24T01:08:12.604Z,17.97
2019-02-24T01:10:42.123Z,18.53
2019-02-24T01:13:11.623Z,19.10
2019-02-24T01:15:41.136Z,18.43
2019-02-24T01:18:10.004Z,17.70
2019-02-24T01:20:39.521Z,19.63
2019-02-24T01:23:08.382Z,16.87
2019-02-24T01:25:37.890Z,16.87
2019-02-24T01:28:06.764Z,16.87
2019-02-24T01:30:36.311Z,16.73
2019-02-24T01:33:05.157Z,18.27
2019-02-24T01:35:34.713Z,16.90
2019-02-24T01:38:03.556Z,17.10
2019-02-24T01:40:33.290Z,15.90
2019-02-24T01:43:02.776Z,17.37
2019-02-24T01:45:32.241Z,17.20
2019-02-24T01:48:01.739Z,18.33
2019-02-24T01:50:31.231Z,15.43
2019-02-24T01:53:00.717Z,15.07
2019-02-24T01:55:30.221Z,15.50
2019-02-24T01:57:59.694Z,15.00
2019-02-24T02:00:28.550Z,16.33
2019-02-24T02:02:58.039Z,16.10
2019-02-24T02:05:27.563Z,15.30
2019-02-24T02:07:57.051Z,15.57
2019-02-24T02:10:26.527Z,15.00
2019-02-24T02:12:57.376Z,15.80
2019-02-24T02:15:27.242Z,15.23
2019-02-24T02:17:56.715Z,16.17
2019-02-24T02:20:26.243Z,15.70
2019-02-24T02:22:55.750Z,14.43
2019-02-24T02:25:25.244Z,14.23
2019-02-24T02:27:54.755Z,15.80
2019-02-24T02:30:24.275Z,13.83
2019-02-24T02:32:53.762Z,18.23
2019-02-24T02:35:23.886Z,16.00
2019-02-24T02:37:53.460Z,13.87
2019-02-24T02:40:23.023Z,14.47
2019-02-24T02:42:52.534Z,16.10
2019-02-24T02:45:22.056Z,15.90
2019-02-24T02:47:51.589Z,17.10
2019-02-24T02:50:21.103Z,15.93
2019-02-24T02:52:49.981Z,16.47
2019-02-24T02:55:19.476Z,16.73
2019-02-24T02:57:48.477Z,16.60
2019-02-24T03:00:34.443Z,15.70
2019-02-24T03:03:03.308Z,14.80
2019-02-24T03:05:32.856Z,18.13
2019-02-24T03:08:08.163Z,16.57
2019-02-24T03:10:37.679Z,15.07
2019-02-24T03:13:07.147Z,16.93
2019-02-24T03:15:36.666Z,16.40
2019-02-24T03:18:06.129Z,14.43
2019-02-24T03:20:35.634Z,15.27
2019-02-24T03:23:05.178Z,16.77
2019-02-24T03:25:34.718Z,16.77
2019-02-24T03:28:03.611Z,17.27
2019-02-24T03:30:32.495Z,15.47
2019-02-24T03:33:01.330Z,14.30
2019-02-24T03:35:31.174Z,16.43
2019-02-24T03:38:00.703Z,15.57
2019-02-24T03:40:30.303Z,16.10
2019-02-24T03:42:59.806Z,17.17
2019-02-24T03:45:29.316Z,16.20
2019-02-24T03:47:58.842Z,17.50
2019-02-24T03:50:28.600Z,16.53
2019-02-24T03:52:57.478Z,16.23
2019-02-24T03:55:29.688Z,15.63
2019-02-24T03:57:59.179Z,14.70
2019-02-24T04:00:28.048Z,16.30
2019-02-24T04:02:57.650Z,14.43
2019-02-24T04:05:26.502Z,15.87
2019-02-24T04:07:55.983Z,13.90
2019-02-24T04:10:25.486Z,16.53
2019-02-24T04:12:54.986Z,15.03
2019-02-24T04:15:24.529Z,14.50
2019-02-24T04:17:54.026Z,14.47
2019-02-24T04:20:23.545Z,15.60
2019-02-24T04:22:53.091Z,14.87
2019-02-24T04:25:22.608Z,14.97
2019-02-24T04:27:52.148Z,15.37
2019-02-24T04:30:21.646Z,15.73
2019-02-24T04:32:51.159Z,19.07
2019-02-24T04:35:20.670Z,16.37
2019-02-24T04:37:50.142Z,17.03
2019-02-24T04:40:19.002Z,18.03
2019-02-24T04:42:48.493Z,15.50
2019-02-24T04:45:18.020Z,16.93
2019-02-24T04:47:47.528Z,16.77
2019-02-24T04:50:17.039Z,18.10
2019-02-24T04:52:46.555Z,18.03
2019-02-24T04:55:16.074Z,15.03
2019-02-24T04:57:45.032Z,15.10
2019-02-24T05:00:14.554Z,15.70
2019-02-24T05:02:44.025Z,15.63
2019-02-24T05:05:13.517Z,18.03
2019-02-24T05:07:43.030Z,16.40
2019-02-24T05:10:12.551Z,14.57
2019-02-24T05:12:42.040Z,16.63
2019-02-24T05:15:11.541Z,18.27
2019-02-24T05:17:41.011Z,16.77
2019-02-24T05:20:10.541Z,18.20
2019-02-24T05:22:40.073Z,16.23
2019-02-24T05:25:09.590Z,17.77
2019-02-24T05:27:39.097Z,18.63
2019-02-24T05:30:08.043Z,19.87
2019-02-24T05:32:37.548Z,19.33
2019-02-24T05:35:07.060Z,19.00
2019-02-24T05:37:36.549Z,20.70
2019-02-24T05:40:05.711Z,18.93
2019-02-24T05:42:35.243Z,18.13
2019-02-24T05:45:04.982Z,19.83
2019-02-24T05:47:34.486Z,17.17
2019-02-24T05:50:03.982Z,19.17
2019-02-24T05:52:33.507Z,17.63
2019-02-24T05:55:03.002Z,18.07
2019-02-24T05:57:32.492Z,18.30
2019-02-24T06:00:02.005Z,17.40
2019-02-24T06:02:31.535Z,17.17
2019-02-24T06:05:01.038Z,17.20
2019-02-24T06:07:30.554Z,17.87
2019-02-24T06:10:00.497Z,18.47
2019-02-24T06:12:30.153Z,21.30
2019-02-24T06:14:59.677Z,20.80
2019-02-24T06:17:30.107Z,17.53
2019-02-24T06:19:59.588Z,20.77
2019-02-24T06:22:29.102Z,20.70
2019-02-24T06:24:58.741Z,17.87
2019-02-24T06:27:28.211Z,22.17
2019-02-24T06:30:04.640Z,17.83
2019-02-24T06:32:28.830Z,20.30
2019-02-24T06:34:58.357Z,18.23
2019-02-24T06:37:27.850Z,18.93
2019-02-24T06:39:57.331Z,15.93
2019-02-24T06:42:26.813Z,20.27
2019-02-24T06:44:56.320Z,19.60
2019-02-24T06:47:25.817Z,18.63
2019-02-24T06:49:55.310Z,18.67
2019-02-24T06:52:25.553Z,18.73
2019-02-24T06:54:55.092Z,20.17
2019-02-24T06:57:23.941Z,17.30
2019-02-24T06:59:53.423Z,17.93
2019-02-24T07:02:22.957Z,19.43
2019-02-24T07:04:52.485Z,21.13
2019-02-24T07:07:21.987Z,20.40
2019-02-24T07:09:51.494Z,18.20
2019-02-24T07:12:21.005Z,18.93
2019-02-24T07:14:50.523Z,18.87
2019-02-24T07:17:19.378Z,19.43
2019-02-24T07:19:48.875Z,18.63
2019-02-24T07:22:18.402Z,17.20
2019-02-24T07:24:47.942Z,17.90
2019-02-24T07:27:17.435Z,15.80
2019-02-24T07:29:46.947Z,17.50
2019-02-24T07:32:16.446Z,17.90
2019-02-24T07:34:45.935Z,17.77
2019-02-24T07:37:15.440Z,20.20
2019-02-24T07:39:44.954Z,19.83
2019-02-24T07:42:13.837Z,18.90
2019-02-24T07:44:43.464Z,17.63
2019-02-24T07:47:12.344Z,21.00
2019-02-24T07:49:42.067Z,15.83
2019-02-24T07:52:11.545Z,18.83
2019-02-24T07:54:41.075Z,17.57
2019-02-24T07:57:10.561Z,14.20
2019-02-24T07:59:40.050Z,15.83
2019-02-24T08:02:10.594Z,15.30
2019-02-24T08:04:40.221Z,15.83
2019-02-24T08:07:09.742Z,16.93
2019-02-24T08:09:39.324Z,15.77
2019-02-24T08:12:10.006Z,19.33
2019-02-24T08:14:39.491Z,16.23
2019-02-24T08:17:09.618Z,17.23
2019-02-24T08:19:39.159Z,14.83
2019-02-24T08:22:08.679Z,16.27
2019-02-24T08:24:38.178Z,18.17
2019-02-24T08:27:07.672Z,17.47
2019-02-24T08:29:37.454Z,17.17
2019-02-24T08:32:06.950Z,14.23
2019-02-24T08:34:36.496Z,17.20
2019-02-24T08:37:05.991Z,14.70
2019-02-24T08:39:35.550Z,16.07
2019-02-24T08:42:05.019Z,14.97
2019-02-24T08:44:34.526Z,15.47
2019-02-24T08:47:04.015Z,16.87
2019-02-24T08:49:33.787Z,15.87
2019-02-24T08:52:03.249Z,15.30
2019-02-24T08:54:32.739Z,15.47
2019-02-24T08:57:02.223Z,16.67
2019-02-24T08:59:31.693Z,16.37
2019-02-24T09:02:00.596Z,15.73
2019-02-24T09:04:30.131Z,16.83
2019-02-24T09:06:59.667Z,14.83
2019-02-24T09:09:30.568Z,14.70
2019-02-24T09:12:01.427Z,14.83
2019-02-24T09:14:30.907Z,17.93
2019-02-24T09:17:00.405Z,14.63
2019-02-24T09:19:29.879Z,13.90
2019-02-24T09:21:59.396Z,13.93
2019-02-24T09:24:28.302Z,15.03
2019-02-24T09:26:57.799Z,14.63
2019-02-24T09:29:27.314Z,15.40
2019-02-24T09:31:56.809Z,14.20
2019-02-24T09:34:26.290Z,13.60
2019-02-24T09:36:55.188Z,14.53
2019-02-24T09:39:24.676Z,14.47
2019-02-24T09:41:54.160Z,15.03
2019-02-24T09:44:23.661Z,13.13
2019-02-24T09:46:53.177Z,13.13
2019-02-24T09:49:22.654Z,15.70
2019-02-24T09:51:52.418Z,12.67
2019-02-24T09:54:22.317Z,13.20
2019-02-24T09:56:51.852Z,13.23
2019-02-24T09:59:21.301Z,11.87
2019-02-24T10:01:50.788Z,13.07
2019-02-24T10:04:20.285Z,13.13
2019-02-24T10:06:49.790Z,13.97
2019-02-24T10:09:19.315Z,12.37
2019-02-24T10:11:48.813Z,13.33
2019-02-24T10:14:18.289Z,13.10
2019-02-24T10:16:47.183Z,13.83
2019-02-24T10:19:16.681Z,12.83
2019-02-24T10:21:46.202Z,13.90
2019-02-24T10:24:15.718Z,12.17
2019-02-24T10:26:44.645Z,14.60
2019-02-24T10:29:13.501Z,12.00
2019-02-24T10:31:43.038Z,15.60
2019-02-24T10:34:12.563Z,12.67
2019-02-24T10:36:42.065Z,15.27
2019-02-24T10:39:13.768Z,11.90
2019-02-24T10:41:42.632Z,13.57
2019-02-24T10:44:12.146Z,12.40
2019-02-24T10:46:41.639Z,12.83
2019-02-24T10:49:11.216Z,11.53
2019-02-24T10:51:40.698Z,11.77
2019-02-24T10:54:09.573Z,12.20
2019-02-24T10:56:39.080Z,13.80
2019-02-24T10:59:08.570Z,13.67
2019-02-24T11:01:38.077Z,10.47
2019-02-24T11:04:07.530Z,12.03
2019-02-24T11:06:37.034Z,12.77
2019-02-24T11:09:07.843Z,13.13
2019-02-24T11:11:37.425Z,11.90
2019-02-24T11:14:06.939Z,11.77
2019-02-24T11:16:36.477Z,11.80
2019-02-24T11:19:05.974Z,11.40
2019-02-24T11:21:35.627Z,12.90
2019-02-24T11:24:05.272Z,11.03
2019-02-24T11:26:34.739Z,11.77
2019-02-24T11:29:04.241Z,13.73
2019-02-24T11:31:38.417Z,12.60
2019-02-24T11:34:04.256Z,12.70
2019-02-24T11:36:33.756Z,12.83
2019-02-24T11:39:04.033Z,14.13
2019-02-24T11:41:33.635Z,15.37
2019-02-24T11:44:03.190Z,14.10
2019-02-24T11:46:32.677Z,13.13
2019-02-24T11:49:02.197Z,13.23
2019-02-24T11:51:31.724Z,14.40
2019-02-24T11:54:01.210Z,12.63
2019-02-24T11:56:30.767Z,13.13
2019-02-24T11:59:00.288Z,12.47
2019-02-24T12:01:29.781Z,10.97
2019-02-24T12:03:59.291Z,11.50
2019-02-24T12:06:28.832Z,11.27
2019-02-24T12:09:05.075Z,11.03
2019-02-24T12:11:31.832Z,10.73
2019-02-24T12:14:01.360Z,12.15
2019-02-24T12:16:30.839Z,11.25
2019-02-24T12:19:00.338Z,12.18
2019-02-24T12:21:29.811Z,14.03
2019-02-24T12:23:59.367Z,11.28
2019-02-24T12:26:28.888Z,12.18
2019-02-24T12:28:58.400Z,9.93
2019-02-24T12:31:27.888Z,10.38
2019-02-24T12:33:57.538Z,11.55
2019-02-24T12:36:27.040Z,10.58
2019-02-24T12:38:56.543Z,12.78
2019-02-24T12:41:26.025Z,11.08
2019-02-24T12:43:55.545Z,10.93
2019-02-24T12:46:25.029Z,11.10
2019-02-24T12:48:54.534Z,10.72
2019-02-24T12:51:24.002Z,9.58
2019-02-24T12:53:52.840Z,10.50
2019-02-24T12:56:22.326Z,9.53
2019-02-24T12:58:51.854Z,10.05
2019-02-24T13:01:21.382Z,9.30
2019-02-24T13:03:50.854Z,7.55
2019-02-24T13:06:20.372Z,8.18
2019-02-24T13:08:49.863Z,6.78
2019-02-24T13:11:19.349Z,7.47
2019-02-24T13:13:48.846Z,7.33
2019-02-24T13:16:18.414Z,6.65
2019-02-24T13:18:47.293Z,6.62
2019-02-24T13:21:16.806Z,6.37
2019-02-24T13:23:46.386Z,6.78
2019-02-24T13:26:15.262Z,6.75
2019-02-24T13:28:50.531Z,7.22
2019-02-24T13:31:15.922Z,5.80
2019-02-24T13:33:45.402Z,6.10
2019-02-24T13:36:14.896Z,6.03
2019-02-24T13:38:44.364Z,5.47
2019-02-24T13:41:13.846Z,4.92
2019-02-24T13:43:43.367Z,6.22
2019-02-24T13:46:12.851Z,9.73
2019-02-24T13:48:42.364Z,5.72
2019-02-24T13:51:11.855Z,7.95
2019-02-24T13:53:41.353Z,6.30
2019-02-24T13:56:10.847Z,6.80
2019-02-24T13:58:40.329Z,8.03
2019-02-24T14:01:09.830Z,6.42
2019-02-24T14:03:39.310Z,7.08
2019-02-24T14:06:08.850Z,8.13
2019-02-24T14:08:38.322Z,8.65
2019-02-24T14:11:08.301Z,7.92
2019-02-24T14:13:37.779Z,7.40
2019-02-24T14:16:07.388Z,7.58
2019-02-24T14:18:36.917Z,6.75
2019-02-24T14:21:06.410Z,6.53
2019-02-24T14:23:35.980Z,5.65
2019-02-24T14:26:05.500Z,6.15
2019-02-24T14:28:34.970Z,5.87
2019-02-24T14:31:04.466Z,5.80
2019-02-24T14:33:33.338Z,6.25
2019-02-24T14:36:03.265Z,5.12
2019-02-24T14:38:33.086Z,6.97
2019-02-24T14:41:02.614Z,4.78
2019-02-24T14:43:32.112Z,5.92
2019-02-24T14:46:01.591Z,5.75
2019-02-24T14:48:31.058Z,5.22
2019-02-24T14:51:00.601Z,6.33
2019-02-24T14:53:30.109Z,5.33
2019-02-24T14:55:59.605Z,5.80
2019-02-24T14:58:29.081Z,6.37
2019-02-24T15:00:57.976Z,6.05
2019-02-24T15:03:27.488Z,5.67
2019-02-24T15:05:57.079Z,5.40
2019-02-24T15:08:26.572Z,5.42
2019-02-24T15:10:56.075Z,6.20
2019-02-24T15:13:25.608Z,6.03
2019-02-24T15:15:55.157Z,5.92
2019-02-24T15:18:24.703Z,6.60
2019-02-24T15:20:54.191Z,6.72
2019-02-24T15:23:23.838Z,6.90
2019-02-24T15:25:53.327Z,6.50
2019-02-24T15:28:22.817Z,6.50
2019-02-24T15:30:52.313Z,6.85
2019-02-24T15:33:21.202Z,6.12
2019-02-24T15:35:50.696Z,7.92
2019-02-24T15:38:20.167Z,6.47
2019-02-24T15:40:49.683Z,6.95
2019-02-24T15:43:19.199Z,7.08
2019-02-24T15:45:48.677Z,8.08
2019-02-24T15:48:18.185Z,7.87
2019-02-24T15:50:47.058Z,7.67
2019-02-24T15:53:16.542Z,7.67
2019-02-24T15:55:46.042Z,6.42
2019-02-24T15:58:15.498Z,6.25
2019-02-24T16:00:44.979Z,6.62
2019-02-24T16:03:14.478Z,7.12
2019-02-24T16:05:44.016Z,7.22
2019-02-24T16:08:14.515Z,6.20
2019-02-24T16:10:44.023Z,6.50
2019-02-24T16:13:16.966Z,5.92
2019-02-24T16:15:44.038Z,4.78
2019-02-24T16:18:13.535Z,5.85
2019-02-24T16:20:43.007Z,8.15
2019-02-24T16:23:12.493Z,5.28
2019-02-24T16:25:42.054Z,6.12
2019-02-24T16:28:11.545Z,7.33
2019-02-24T16:30:41.004Z,5.97
2019-02-24T16:33:10.944Z,6.45
2019-02-24T16:35:40.621Z,7.05
2019-02-24T16:38:10.095Z,6.08
2019-02-24T16:40:39.634Z,6.80
2019-02-24T16:43:09.122Z,7.50
2019-02-24T16:45:37.970Z,8.40
2019-02-24T16:48:07.452Z,7.47
2019-02-24T16:50:36.995Z,8.08
2019-02-24T16:53:05.862Z,8.30
2019-02-24T16:55:35.336Z,7.78
2019-02-24T16:58:04.887Z,8.13
2019-02-24T17:00:33.753Z,10.90
2019-02-24T17:03:03.298Z,15.88
2019-02-24T17:05:32.799Z,18.97
2019-02-24T17:08:02.344Z,25.23
2019-02-24T17:10:31.861Z,35.57
2019-02-24T17:13:01.984Z,31.47
2019-02-24T17:15:31.658Z,29.00
2019-02-24T17:18:01.156Z,24.20
2019-02-24T17:20:30.760Z,22.80
2019-02-24T17:23:00.269Z,17.97
2019-02-24T17:25:29.832Z,16.93
2019-02-24T17:27:59.341Z,15.27
2019-02-24T17:30:29.096Z,14.50
2019-02-24T17:32:58.605Z,13.27
2019-02-24T17:35:28.070Z,13.43
2019-02-24T17:37:57.565Z,9.93
2019-02-24T17:40:27.104Z,10.23
2019-02-24T17:42:56.564Z,13.47
2019-02-24T17:45:25.438Z,12.17
2019-02-24T17:47:54.973Z,12.13
2019-02-24T17:50:24.490Z,10.60
2019-02-24T17:52:54.263Z,12.00
2019-02-24T17:55:23.796Z,13.80
2019-02-24T17:57:53.332Z,11.50
2019-02-24T18:00:31.592Z,13.13
2019-02-24T18:03:01.212Z,17.40
2019-02-24T18:05:30.717Z,16.70
2019-02-24T18:08:00.214Z,18.77
2019-02-24T18:10:29.743Z,31.50
2019-02-24T18:12:59.315Z,15.20
2019-02-24T18:15:28.785Z,18.90
2019-02-24T18:17:58.298Z,17.03
2019-02-24T18:20:27.791Z,14.83
2019-02-24T18:22:57.445Z,16.77
2019-02-24T18:25:26.980Z,14.73
2019-02-24T18:27:55.829Z,14.40
2019-02-24T18:30:25.416Z,12.57
2019-02-24T18:32:54.930Z,13.83
2019-02-24T18:35:24.701Z,14.87
2019-02-24T18:37:54.887Z,14.30
2019-02-24T18:40:24.408Z,13.57
2019-02-24T18:42:59.760Z,14.07
2019-02-24T18:45:24.400Z,15.87
2019-02-24T18:47:53.904Z,14.33
2019-02-24T18:50:23.567Z,12.83
2019-02-24T18:52:53.064Z,14.80
2019-02-24T18:55:22.590Z,14.43
2019-02-24T18:57:51.446Z,13.33
2019-02-24T19:00:20.392Z,14.23
2019-02-24T19:02:49.899Z,12.07
2019-02-24T19:05:19.440Z,14.73
2019-02-24T19:07:48.940Z,11.13
2019-02-24T19:10:18.483Z,14.27
2019-02-24T19:12:48.016Z,13.13
2019-02-24T19:15:17.914Z,18.17
2019-02-24T19:17:47.527Z,26.83
2019-02-24T19:20:18.293Z,18.67
2019-02-24T19:22:47.807Z,15.27
2019-02-24T19:25:17.519Z,16.00
2019-02-24T19:27:46.997Z,14.87
2019-02-24T19:30:16.683Z,14.87
2019-02-24T19:32:46.238Z,15.97
2019-02-24T19:35:15.762Z,16.10
2019-02-24T19:37:45.257Z,12.77
2019-02-24T19:40:15.991Z,11.63
2019-02-24T19:42:46.011Z,13.53
2019-02-24T19:45:16.639Z,13.10
2019-02-24T19:47:46.281Z,13.47
2019-02-24T19:50:15.789Z,13.97
2019-02-24T19:52:45.238Z,13.67
2019-02-24T19:55:14.780Z,14.17
2019-02-24T19:57:44.307Z,13.20
2019-02-24T20:00:19.812Z,12.27
2019-02-24T20:02:49.312Z,11.50
2019-02-24T20:05:18.874Z,15.57
2019-02-24T20:07:48.380Z,14.77
2019-02-24T20:10:20.159Z,14.27
2019-02-24T20:12:49.639Z,13.43
2019-02-24T20:15:19.137Z,12.60
2019-02-24T20:17:48.639Z,13.67
2019-02-24T20:20:18.369Z,14.63
2019-02-24T20:22:47.321Z,12.20
2019-02-24T20:25:16.895Z,13.43
2019-02-24T20:27:46.410Z,16.80
2019-02-24T20:30:23.712Z,14.13
2019-02-24T20:32:53.223Z,13.87
2019-02-24T20:35:22.687Z,15.03
2019-02-24T20:37:52.239Z,14.40
2019-02-24T20:40:21.710Z,14.73
2019-02-24T20:42:51.253Z,15.07
2019-02-24T20:45:20.770Z,13.90
2019-02-24T20:47:50.383Z,13.63
2019-02-24T20:50:20.335Z,15.73
2019-02-24T20:52:49.912Z,19.27
2019-02-24T20:55:19.434Z,17.57
2019-02-24T20:57:48.982Z,13.00
2019-02-24T21:00:21.276Z,13.10
2019-02-24T21:02:50.800Z,23.10
2019-02-24T21:05:20.313Z,23.43
2019-02-24T21:07:49.790Z,25.13
2019-02-24T21:10:18.637Z,22.60
2019-02-24T21:12:48.154Z,19.57
2019-02-24T21:15:17.752Z,19.80
2019-02-24T21:17:47.229Z,18.07
2019-02-24T21:20:18.796Z,14.17
2019-02-24T21:22:50.429Z,13.53
2019-02-24T21:25:19.479Z,14.93
2019-02-24T21:27:49.010Z,14.27
2019-02-24T21:30:18.726Z,11.63
2019-02-24T21:32:48.214Z,12.30
2019-02-24T21:35:17.847Z,11.13
2019-02-24T21:37:47.575Z,14.80
2019-02-24T21:40:17.180Z,17.87
2019-02-24T21:42:46.685Z,15.17
2019-02-24T21:45:18.001Z,19.27
2019-02-24T21:47:47.540Z,24.80
2019-02-24T21:50:17.354Z,24.30
2019-02-24T21:52:46.898Z,18.10
2019-02-24T21:55:16.375Z,10.47
2019-02-24T21:57:46.003Z,11.60
2019-02-24T22:00:18.144Z,28.33
2019-02-24T22:02:47.643Z,18.57
2019-02-24T22:05:17.127Z,85.53
2019-02-24T22:07:46.725Z,149.77
2019-02-24T22:10:16.276Z,113.50
2019-02-24T22:12:45.759Z,53.33
2019-02-24T22:15:16.954Z,14.57
2019-02-24T22:17:46.476Z,15.73
2019-02-24T22:20:16.749Z,15.20
2019-02-24T22:22:45.675Z,14.33
2019-02-24T22:25:15.191Z,14.37
2019-02-24T22:27:44.701Z,17.97
2019-02-24T22:30:15.397Z,15.53
2019-02-24T22:32:44.904Z,15.07
2019-02-24T22:35:14.404Z,13.70
2019-02-24T22:37:43.959Z,13.50
2019-02-24T22:40:13.624Z,11.23
2019-02-24T22:42:44.221Z,12.30
2019-02-24T22:45:16.737Z,11.70
2019-02-24T22:47:46.364Z,10.57
2019-02-24T22:50:16.401Z,11.37
2019-02-24T22:52:45.892Z,12.33
2019-02-24T22:55:15.766Z,10.63
2019-02-24T22:57:45.273Z,9.73
2019-02-24T23:00:57.542Z,9.23
2019-02-24T23:03:32.551Z,10.70
2019-02-24T23:06:02.086Z,9.83
2019-02-24T23:08:31.565Z,10.17
2019-02-24T23:11:00.443Z,9.03
2019-02-24T23:13:29.947Z,9.83
2019-02-24T23:15:59.415Z,8.80
2019-02-24T23:18:30.324Z,11.80
2019-02-24T23:20:59.871Z,11.67
2019-02-24T23:23:31.828Z,10.40
2019-02-24T23:26:01.340Z,11.33
2019-02-24T23:28:30.851Z,11.60
2019-02-24T23:31:00.505Z,11.83
2019-02-24T23:33:30.026Z,12.33
2019-02-24T23:35:59.533Z,14.63
2019-02-24T23:38:29.034Z,14.03
2019-02-24T23:40:58.551Z,16.93
2019-02-24T23:43:28.039Z,12.07
2019-02-24T23:45:57.515Z,13.17
2019-02-24T23:48:27.055Z,12.13
2019-02-24T23:50:56.570Z,10.73
2019-02-24T23:53:26.070Z,11.17
2019-02-24T23:55:55.579Z,14.10
2019-02-24T23:58:25.062Z,10.43
